sensor_id;sensor_type;location;lat;lon;timestamp;temperature;humidity
16038;DHT22;8123;50.906;6.172;2022-10-16T00:01:27;14.30;99.90
16038;DHT22;8123;50.906;6.172;2022-10-16T00:03:54;14.30;99.90
16038;DHT22;8123;50.906;6.172;2022-10-16T00:06:21;14.30;99.90
16038;DHT22;8123;50.906;6.172;2022-10-16T00:08:48;14.20;99.90
16038;DHT22;8123;50.906;6.172;2022-10-16T00:11:17;14.20;99.90
16038;DHT22;8123;50.906;6.172;2022-10-16T00:13:44;14.20;99.90
16038;DHT22;8123;50.906;6.172;2022-10-16T00:16:11;14.20;99.90
16038;DHT22;8123;50.906;6.172;2022-10-16T00:18:38;14.10;99.90
16038;DHT22;8123;50.906;6.172;2022-10-16T00:21:07;14.10;99.90
16038;DHT22;8123;50.906;6.172;2022-10-16T00:23:33;14.10;99.90
16038;DHT22;8123;50.906;6.172;2022-10-16T00:26:03;14.00;99.90
16038;DHT22;8123;50.906;6.172;2022-10-16T00:28:29;14.00;99.90
16038;DHT22;8123;50.906;6.172;2022-10-16T00:30:54;13.90;99.90
16038;DHT22;8123;50.906;6.172;2022-10-16T00:33:20;13.90;99.90
16038;DHT22;8123;50.906;6.172;2022-10-16T00:35:46;13.90;99.90
16038;DHT22;8123;50.906;6.172;2022-10-16T00:38:12;13.90;99.90
16038;DHT22;8123;50.906;6.172;2022-10-16T00:40:38;13.90;99.90
16038;DHT22;8123;50.906;6.172;2022-10-16T00:43:12;13.90;99.90
16038;DHT22;8123;50.906;6.172;2022-10-16T00:45:37;13.90;99.90
16038;DHT22;8123;50.906;6.172;2022-10-16T00:48:03;13.90;99.90
16038;DHT22;8123;50.906;6.172;2022-10-16T00:50:32;13.90;99.90
16038;DHT22;8123;50.906;6.172;2022-10-16T00:53:00;13.90;99.90
16038;DHT22;8123;50.906;6.172;2022-10-16T00:55:27;13.90;99.90
16038;DHT22;8123;50.906;6.172;2022-10-16T00:57:56;13.90;99.90
16038;DHT22;8123;50.906;6.172;2022-10-16T01:00:25;14.00;99.90
16038;DHT22;8123;50.906;6.172;2022-10-16T01:03:00;14.00;99.90
16038;DHT22;8123;50.906;6.172;2022-10-16T01:05:41;14.00;99.90
16038;DHT22;8123;50.906;6.172;2022-10-16T01:08:16;14.00;99.90
16038;DHT22;8123;50.906;6.172;2022-10-16T01:13:24;14.00;99.90
16038;DHT22;8123;50.906;6.172;2022-10-16T01:16:35;14.00;99.90
16038;DHT22;8123;50.906;6.172;2022-10-16T01:18:46;14.10;99.90
16038;DHT22;8123;50.906;6.172;2022-10-16T01:29:29;14.00;99.90
16038;DHT22;8123;50.906;6.172;2022-10-16T01:32:00;13.90;99.90
16038;DHT22;8123;50.906;6.172;2022-10-16T01:34:41;13.90;99.90
16038;DHT22;8123;50.906;6.172;2022-10-16T01:37:13;13.90;99.90
16038;DHT22;8123;50.906;6.172;2022-10-16T01:39:42;13.90;99.90
16038;DHT22;8123;50.906;6.172;2022-10-16T01:42:34;13.90;99.90
16038;DHT22;8123;50.906;6.172;2022-10-16T01:45:02;13.90;99.90
16038;DHT22;8123;50.906;6.172;2022-10-16T01:47:30;13.90;99.90
16038;DHT22;8123;50.906;6.172;2022-10-16T01:49:58;13.90;99.90
16038;DHT22;8123;50.906;6.172;2022-10-16T01:52:25;13.90;99.90
16038;DHT22;8123;50.906;6.172;2022-10-16T01:54:54;13.90;99.90
16038;DHT22;8123;50.906;6.172;2022-10-16T01:57:21;13.90;99.90
16038;DHT22;8123;50.906;6.172;2022-10-16T01:59:54;13.90;99.90
16038;DHT22;8123;50.906;6.172;2022-10-16T02:02:20;13.90;99.90
16038;DHT22;8123;50.906;6.172;2022-10-16T02:04:51;13.90;99.90
16038;DHT22;8123;50.906;6.172;2022-10-16T02:07:18;13.90;99.90
16038;DHT22;8123;50.906;6.172;2022-10-16T02:09:44;13.90;99.90
16038;DHT22;8123;50.906;6.172;2022-10-16T02:14:39;13.90;99.90
16038;DHT22;8123;50.906;6.172;2022-10-16T02:17:12;13.90;99.90
16038;DHT22;8123;50.906;6.172;2022-10-16T02:19:38;13.90;99.90
16038;DHT22;8123;50.906;6.172;2022-10-16T02:22:06;14.00;99.90
16038;DHT22;8123;50.906;6.172;2022-10-16T02:24:42;13.90;99.90
16038;DHT22;8123;50.906;6.172;2022-10-16T02:27:16;13.90;99.90
16038;DHT22;8123;50.906;6.172;2022-10-16T02:29:47;14.00;99.90
16038;DHT22;8123;50.906;6.172;2022-10-16T02:32:17;13.90;99.90
16038;DHT22;8123;50.906;6.172;2022-10-16T02:34:46;13.90;99.90
16038;DHT22;8123;50.906;6.172;2022-10-16T02:37:12;13.90;99.90
16038;DHT22;8123;50.906;6.172;2022-10-16T02:39:39;13.90;99.90
16038;DHT22;8123;50.906;6.172;2022-10-16T02:42:11;13.90;99.90
16038;DHT22;8123;50.906;6.172;2022-10-16T02:44:36;13.90;99.90
16038;DHT22;8123;50.906;6.172;2022-10-16T02:47:02;13.80;99.90
16038;DHT22;8123;50.906;6.172;2022-10-16T02:49:28;13.80;99.90
16038;DHT22;8123;50.906;6.172;2022-10-16T02:51:53;13.80;99.90
16038;DHT22;8123;50.906;6.172;2022-10-16T02:54:19;13.90;99.90
16038;DHT22;8123;50.906;6.172;2022-10-16T02:56:45;13.80;99.90
16038;DHT22;8123;50.906;6.172;2022-10-16T02:59:10;13.80;99.90
16038;DHT22;8123;50.906;6.172;2022-10-16T03:01:36;13.80;99.90
16038;DHT22;8123;50.906;6.172;2022-10-16T03:04:02;13.70;99.90
16038;DHT22;8123;50.906;6.172;2022-10-16T03:06:27;13.80;99.90
16038;DHT22;8123;50.906;6.172;2022-10-16T03:08:53;13.80;99.90
16038;DHT22;8123;50.906;6.172;2022-10-16T03:11:18;13.70;99.90
16038;DHT22;8123;50.906;6.172;2022-10-16T03:13:44;13.80;99.90
16038;DHT22;8123;50.906;6.172;2022-10-16T03:16:10;13.70;99.90
16038;DHT22;8123;50.906;6.172;2022-10-16T03:18:35;13.70;99.90
16038;DHT22;8123;50.906;6.172;2022-10-16T03:21:01;13.70;99.90
16038;DHT22;8123;50.906;6.172;2022-10-16T03:23:26;13.70;99.90
16038;DHT22;8123;50.906;6.172;2022-10-16T03:25:52;13.70;99.90
16038;DHT22;8123;50.906;6.172;2022-10-16T03:28:19;13.60;99.90
16038;DHT22;8123;50.906;6.172;2022-10-16T03:30:45;13.60;99.90
16038;DHT22;8123;50.906;6.172;2022-10-16T03:33:10;13.60;99.90
16038;DHT22;8123;50.906;6.172;2022-10-16T03:35:36;13.60;99.90
16038;DHT22;8123;50.906;6.172;2022-10-16T03:38:02;13.60;99.90
16038;DHT22;8123;50.906;6.172;2022-10-16T03:40:27;13.50;99.90
16038;DHT22;8123;50.906;6.172;2022-10-16T03:42:53;13.50;99.90
16038;DHT22;8123;50.906;6.172;2022-10-16T03:45:23;13.40;99.90
16038;DHT22;8123;50.906;6.172;2022-10-16T03:47:48;13.50;99.90
16038;DHT22;8123;50.906;6.172;2022-10-16T03:50:14;13.50;99.90
16038;DHT22;8123;50.906;6.172;2022-10-16T03:52:40;13.50;99.90
16038;DHT22;8123;50.906;6.172;2022-10-16T03:55:06;13.40;99.90
16038;DHT22;8123;50.906;6.172;2022-10-16T03:57:31;13.40;99.90
16038;DHT22;8123;50.906;6.172;2022-10-16T03:59:57;13.40;99.90
16038;DHT22;8123;50.906;6.172;2022-10-16T04:02:23;13.40;99.90
16038;DHT22;8123;50.906;6.172;2022-10-16T04:04:48;13.40;99.90
16038;DHT22;8123;50.906;6.172;2022-10-16T04:07:14;13.40;99.90
16038;DHT22;8123;50.906;6.172;2022-10-16T04:09:40;13.40;99.90
16038;DHT22;8123;50.906;6.172;2022-10-16T04:12:06;13.20;99.90
16038;DHT22;8123;50.906;6.172;2022-10-16T04:14:31;13.40;99.90
16038;DHT22;8123;50.906;6.172;2022-10-16T04:16:57;13.40;99.90
16038;DHT22;8123;50.906;6.172;2022-10-16T04:19:22;13.40;99.90
16038;DHT22;8123;50.906;6.172;2022-10-16T04:21:48;13.30;99.90
16038;DHT22;8123;50.906;6.172;2022-10-16T04:24:14;13.30;99.90
16038;DHT22;8123;50.906;6.172;2022-10-16T04:26:39;13.30;99.90
16038;DHT22;8123;50.906;6.172;2022-10-16T04:29:05;13.20;99.90
16038;DHT22;8123;50.906;6.172;2022-10-16T04:31:31;13.30;99.90
16038;DHT22;8123;50.906;6.172;2022-10-16T04:33:57;13.30;99.90
16038;DHT22;8123;50.906;6.172;2022-10-16T04:36:22;13.20;99.90
16038;DHT22;8123;50.906;6.172;2022-10-16T04:38:48;13.20;99.90
16038;DHT22;8123;50.906;6.172;2022-10-16T04:41:13;13.20;99.90
16038;DHT22;8123;50.906;6.172;2022-10-16T04:43:39;13.20;99.90
16038;DHT22;8123;50.906;6.172;2022-10-16T04:46:05;13.20;99.90
16038;DHT22;8123;50.906;6.172;2022-10-16T04:48:31;13.20;99.90
16038;DHT22;8123;50.906;6.172;2022-10-16T04:50:57;13.20;99.90
16038;DHT22;8123;50.906;6.172;2022-10-16T04:53:23;13.20;99.90
16038;DHT22;8123;50.906;6.172;2022-10-16T04:55:49;13.20;99.90
16038;DHT22;8123;50.906;6.172;2022-10-16T04:58:16;13.20;99.90
16038;DHT22;8123;50.906;6.172;2022-10-16T05:00:41;13.20;99.90
16038;DHT22;8123;50.906;6.172;2022-10-16T05:03:07;13.20;99.90
16038;DHT22;8123;50.906;6.172;2022-10-16T05:05:34;13.20;99.90
16038;DHT22;8123;50.906;6.172;2022-10-16T05:08:00;13.20;99.90
16038;DHT22;8123;50.906;6.172;2022-10-16T05:10:26;13.20;99.90
16038;DHT22;8123;50.906;6.172;2022-10-16T05:12:52;13.20;99.90
16038;DHT22;8123;50.906;6.172;2022-10-16T05:15:18;13.20;99.90
16038;DHT22;8123;50.906;6.172;2022-10-16T05:17:44;13.20;99.90
16038;DHT22;8123;50.906;6.172;2022-10-16T05:20:09;13.20;99.90
16038;DHT22;8123;50.906;6.172;2022-10-16T05:22:35;13.20;99.90
16038;DHT22;8123;50.906;6.172;2022-10-16T05:25:03;13.20;99.90
16038;DHT22;8123;50.906;6.172;2022-10-16T05:27:29;13.30;99.90
16038;DHT22;8123;50.906;6.172;2022-10-16T05:29:54;13.30;99.90
16038;DHT22;8123;50.906;6.172;2022-10-16T05:32:20;13.30;99.90
16038;DHT22;8123;50.906;6.172;2022-10-16T05:34:46;13.30;99.90
16038;DHT22;8123;50.906;6.172;2022-10-16T05:37:12;13.30;99.90
16038;DHT22;8123;50.906;6.172;2022-10-16T05:39:40;13.30;99.90
16038;DHT22;8123;50.906;6.172;2022-10-16T05:42:06;13.40;99.90
16038;DHT22;8123;50.906;6.172;2022-10-16T05:44:32;13.30;99.90
16038;DHT22;8123;50.906;6.172;2022-10-16T05:46:58;13.40;99.90
16038;DHT22;8123;50.906;6.172;2022-10-16T05:49:23;13.40;99.90
16038;DHT22;8123;50.906;6.172;2022-10-16T05:51:49;13.40;99.90
16038;DHT22;8123;50.906;6.172;2022-10-16T05:54:14;13.30;99.90
16038;DHT22;8123;50.906;6.172;2022-10-16T05:56:40;13.30;99.90
16038;DHT22;8123;50.906;6.172;2022-10-16T05:59:06;13.40;99.90
16038;DHT22;8123;50.906;6.172;2022-10-16T06:01:32;13.40;99.90
16038;DHT22;8123;50.906;6.172;2022-10-16T06:03:58;13.40;99.90
16038;DHT22;8123;50.906;6.172;2022-10-16T06:06:26;13.30;99.90
16038;DHT22;8123;50.906;6.172;2022-10-16T06:08:54;13.30;99.90
16038;DHT22;8123;50.906;6.172;2022-10-16T06:11:25;13.30;99.90
16038;DHT22;8123;50.906;6.172;2022-10-16T06:13:52;13.40;99.90
16038;DHT22;8123;50.906;6.172;2022-10-16T06:16:18;13.50;99.90
16038;DHT22;8123;50.906;6.172;2022-10-16T06:18:45;13.40;99.90
16038;DHT22;8123;50.906;6.172;2022-10-16T06:21:14;13.40;99.90
16038;DHT22;8123;50.906;6.172;2022-10-16T06:23:41;13.40;99.90
16038;DHT22;8123;50.906;6.172;2022-10-16T06:26:12;13.40;99.90
16038;DHT22;8123;50.906;6.172;2022-10-16T06:28:38;13.40;99.90
16038;DHT22;8123;50.906;6.172;2022-10-16T06:31:05;13.50;99.90
16038;DHT22;8123;50.906;6.172;2022-10-16T06:33:32;13.40;99.90
16038;DHT22;8123;50.906;6.172;2022-10-16T06:36:09;13.50;99.90
16038;DHT22;8123;50.906;6.172;2022-10-16T06:38:35;13.50;99.90
16038;DHT22;8123;50.906;6.172;2022-10-16T06:41:01;13.60;99.90
16038;DHT22;8123;50.906;6.172;2022-10-16T06:43:29;13.60;99.90
16038;DHT22;8123;50.906;6.172;2022-10-16T06:45:58;13.60;99.90
16038;DHT22;8123;50.906;6.172;2022-10-16T06:48:24;13.60;99.90
16038;DHT22;8123;50.906;6.172;2022-10-16T06:51:01;13.60;99.90
16038;DHT22;8123;50.906;6.172;2022-10-16T06:53:29;13.60;99.90
16038;DHT22;8123;50.906;6.172;2022-10-16T06:55:56;13.60;99.90
16038;DHT22;8123;50.906;6.172;2022-10-16T06:58:22;13.60;99.90
16038;DHT22;8123;50.906;6.172;2022-10-16T07:00:48;13.60;99.90
16038;DHT22;8123;50.906;6.172;2022-10-16T07:03:14;13.60;99.90
16038;DHT22;8123;50.906;6.172;2022-10-16T07:05:41;13.60;99.90
16038;DHT22;8123;50.906;6.172;2022-10-16T07:08:07;13.60;99.90
16038;DHT22;8123;50.906;6.172;2022-10-16T07:10:34;13.60;99.90
16038;DHT22;8123;50.906;6.172;2022-10-16T07:13:00;13.60;99.90
16038;DHT22;8123;50.906;6.172;2022-10-16T07:15:26;13.70;99.90
16038;DHT22;8123;50.906;6.172;2022-10-16T07:17:52;13.80;99.90
16038;DHT22;8123;50.906;6.172;2022-10-16T07:20:18;13.80;99.90
16038;DHT22;8123;50.906;6.172;2022-10-16T07:22:44;13.80;99.90
16038;DHT22;8123;50.906;6.172;2022-10-16T07:27:45;13.80;99.90
16038;DHT22;8123;50.906;6.172;2022-10-16T07:30:11;13.70;99.90
16038;DHT22;8123;50.906;6.172;2022-10-16T07:32:37;13.70;99.90
16038;DHT22;8123;50.906;6.172;2022-10-16T07:35:03;13.70;99.90
16038;DHT22;8123;50.906;6.172;2022-10-16T07:37:29;13.80;99.90
16038;DHT22;8123;50.906;6.172;2022-10-16T07:39:55;13.80;99.90
16038;DHT22;8123;50.906;6.172;2022-10-16T07:42:21;13.90;99.90
16038;DHT22;8123;50.906;6.172;2022-10-16T07:44:47;14.00;99.90
16038;DHT22;8123;50.906;6.172;2022-10-16T07:47:13;14.00;99.90
16038;DHT22;8123;50.906;6.172;2022-10-16T07:49:39;14.10;99.90
16038;DHT22;8123;50.906;6.172;2022-10-16T07:52:07;14.20;99.90
16038;DHT22;8123;50.906;6.172;2022-10-16T07:54:33;14.20;99.90
16038;DHT22;8123;50.906;6.172;2022-10-16T07:57:16;14.30;99.90
16038;DHT22;8123;50.906;6.172;2022-10-16T07:59:45;14.40;99.90
16038;DHT22;8123;50.906;6.172;2022-10-16T08:02:12;14.40;99.90
16038;DHT22;8123;50.906;6.172;2022-10-16T08:04:38;14.50;99.90
16038;DHT22;8123;50.906;6.172;2022-10-16T08:07:04;14.50;99.90
16038;DHT22;8123;50.906;6.172;2022-10-16T08:09:32;14.60;99.90
16038;DHT22;8123;50.906;6.172;2022-10-16T08:11:58;14.60;99.90
16038;DHT22;8123;50.906;6.172;2022-10-16T08:14:23;14.70;99.90
16038;DHT22;8123;50.906;6.172;2022-10-16T08:16:49;14.80;99.90
16038;DHT22;8123;50.906;6.172;2022-10-16T08:19:28;14.90;99.90
16038;DHT22;8123;50.906;6.172;2022-10-16T08:21:54;14.90;99.90
16038;DHT22;8123;50.906;6.172;2022-10-16T08:24:19;15.00;99.90
16038;DHT22;8123;50.906;6.172;2022-10-16T08:26:45;15.00;99.90
16038;DHT22;8123;50.906;6.172;2022-10-16T08:29:37;15.10;99.90
16038;DHT22;8123;50.906;6.172;2022-10-16T08:32:23;15.20;99.90
16038;DHT22;8123;50.906;6.172;2022-10-16T08:34:49;15.30;99.90
16038;DHT22;8123;50.906;6.172;2022-10-16T08:37:15;15.30;99.90
16038;DHT22;8123;50.906;6.172;2022-10-16T08:39:40;15.40;99.90
16038;DHT22;8123;50.906;6.172;2022-10-16T08:48:06;15.60;99.90
16038;DHT22;8123;50.906;6.172;2022-10-16T08:50:38;15.60;99.90
16038;DHT22;8123;50.906;6.172;2022-10-16T08:53:05;15.60;99.90
16038;DHT22;8123;50.906;6.172;2022-10-16T08:55:39;15.70;99.90
16038;DHT22;8123;50.906;6.172;2022-10-16T08:58:15;15.70;99.90
16038;DHT22;8123;50.906;6.172;2022-10-16T09:00:43;15.80;99.90
16038;DHT22;8123;50.906;6.172;2022-10-16T09:22:48;16.10;99.90
16038;DHT22;8123;50.906;6.172;2022-10-16T09:25:20;16.10;99.90
16038;DHT22;8123;50.906;6.172;2022-10-16T09:27:48;16.10;99.90
16038;DHT22;8123;50.906;6.172;2022-10-16T09:30:18;16.20;99.90
16038;DHT22;8123;50.906;6.172;2022-10-16T09:32:46;16.20;99.90
16038;DHT22;8123;50.906;6.172;2022-10-16T09:35:20;16.20;99.90
16038;DHT22;8123;50.906;6.172;2022-10-16T09:37:49;16.30;99.90
16038;DHT22;8123;50.906;6.172;2022-10-16T09:42:53;16.30;99.90
16038;DHT22;8123;50.906;6.172;2022-10-16T09:45:23;16.30;99.90
16038;DHT22;8123;50.906;6.172;2022-10-16T09:47:49;16.30;99.90
16038;DHT22;8123;50.906;6.172;2022-10-16T09:50:23;16.40;99.90
16038;DHT22;8123;50.906;6.172;2022-10-16T09:52:50;16.40;99.90
16038;DHT22;8123;50.906;6.172;2022-10-16T09:55:18;16.50;99.90
16038;DHT22;8123;50.906;6.172;2022-10-16T09:57:52;16.50;99.90
16038;DHT22;8123;50.906;6.172;2022-10-16T10:00:19;16.50;99.90
16038;DHT22;8123;50.906;6.172;2022-10-16T10:02:45;16.60;99.90
16038;DHT22;8123;50.906;6.172;2022-10-16T10:05:28;16.60;99.90
16038;DHT22;8123;50.906;6.172;2022-10-16T10:07:59;16.70;99.90
16038;DHT22;8123;50.906;6.172;2022-10-16T10:10:32;16.70;99.90
16038;DHT22;8123;50.906;6.172;2022-10-16T10:12:58;16.80;99.90
16038;DHT22;8123;50.906;6.172;2022-10-16T10:15:25;16.80;99.90
16038;DHT22;8123;50.906;6.172;2022-10-16T10:17:55;16.80;99.90
16038;DHT22;8123;50.906;6.172;2022-10-16T10:20:29;16.80;99.90
16038;DHT22;8123;50.906;6.172;2022-10-16T10:22:58;16.80;99.90
16038;DHT22;8123;50.906;6.172;2022-10-16T10:25:36;16.80;99.90
16038;DHT22;8123;50.906;6.172;2022-10-16T10:33:20;16.70;99.90
16038;DHT22;8123;50.906;6.172;2022-10-16T10:38:55;16.70;99.90
16038;DHT22;8123;50.906;6.172;2022-10-16T10:50:58;16.90;99.90
16038;DHT22;8123;50.906;6.172;2022-10-16T10:59:40;17.10;99.90
16038;DHT22;8123;50.906;6.172;2022-10-16T11:08:00;17.20;99.90
16038;DHT22;8123;50.906;6.172;2022-10-16T11:10:30;17.30;99.90
16038;DHT22;8123;50.906;6.172;2022-10-16T11:13:32;17.50;99.90
16038;DHT22;8123;50.906;6.172;2022-10-16T11:16:03;17.50;99.90
16038;DHT22;8123;50.906;6.172;2022-10-16T11:18:59;17.50;99.90
16038;DHT22;8123;50.906;6.172;2022-10-16T11:21:30;17.60;99.90
16038;DHT22;8123;50.906;6.172;2022-10-16T11:24:04;17.60;99.90
16038;DHT22;8123;50.906;6.172;2022-10-16T11:26:35;17.70;99.90
16038;DHT22;8123;50.906;6.172;2022-10-16T11:29:12;17.70;99.90
16038;DHT22;8123;50.906;6.172;2022-10-16T11:31:47;17.80;99.90
16038;DHT22;8123;50.906;6.172;2022-10-16T11:34:51;18.00;99.90
16038;DHT22;8123;50.906;6.172;2022-10-16T11:37:21;18.00;99.90
16038;DHT22;8123;50.906;6.172;2022-10-16T11:39:50;18.00;99.90
16038;DHT22;8123;50.906;6.172;2022-10-16T11:42:39;18.00;99.90
16038;DHT22;8123;50.906;6.172;2022-10-16T11:47:44;18.10;99.90
16038;DHT22;8123;50.906;6.172;2022-10-16T11:50:34;18.10;99.90
16038;DHT22;8123;50.906;6.172;2022-10-16T11:53:14;18.10;99.90
16038;DHT22;8123;50.906;6.172;2022-10-16T11:55:43;18.10;99.90
16038;DHT22;8123;50.906;6.172;2022-10-16T11:58:34;18.20;99.90
16038;DHT22;8123;50.906;6.172;2022-10-16T12:04:26;18.20;99.90
16038;DHT22;8123;50.906;6.172;2022-10-16T12:07:13;18.00;99.90
16038;DHT22;8123;50.906;6.172;2022-10-16T12:09:40;18.30;99.90
16038;DHT22;8123;50.906;6.172;2022-10-16T12:12:26;18.30;99.90
16038;DHT22;8123;50.906;6.172;2022-10-16T12:15:18;18.30;99.90
16038;DHT22;8123;50.906;6.172;2022-10-16T12:17:44;18.30;99.90
16038;DHT22;8123;50.906;6.172;2022-10-16T12:20:21;18.40;99.90
16038;DHT22;8123;50.906;6.172;2022-10-16T12:25:27;18.70;99.90
16038;DHT22;8123;50.906;6.172;2022-10-16T12:27:55;18.70;99.90
16038;DHT22;8123;50.906;6.172;2022-10-16T12:30:23;18.80;99.90
16038;DHT22;8123;50.906;6.172;2022-10-16T12:32:55;18.90;99.90
16038;DHT22;8123;50.906;6.172;2022-10-16T12:35:23;18.90;99.90
16038;DHT22;8123;50.906;6.172;2022-10-16T12:37:51;19.00;99.90
16038;DHT22;8123;50.906;6.172;2022-10-16T12:42:48;19.00;99.90
16038;DHT22;8123;50.906;6.172;2022-10-16T12:47:51;18.90;99.90
16038;DHT22;8123;50.906;6.172;2022-10-16T12:50:34;19.00;99.90
16038;DHT22;8123;50.906;6.172;2022-10-16T12:53:02;19.00;99.90
16038;DHT22;8123;50.906;6.172;2022-10-16T12:55:35;19.10;99.90
16038;DHT22;8123;50.906;6.172;2022-10-16T13:00:57;19.00;99.90
16038;DHT22;8123;50.906;6.172;2022-10-16T13:09:16;19.00;99.90
16038;DHT22;8123;50.906;6.172;2022-10-16T13:17:36;18.80;99.90
16038;DHT22;8123;50.906;6.172;2022-10-16T13:28:05;19.00;99.90
16038;DHT22;8123;50.906;6.172;2022-10-16T13:30:41;19.00;99.90
16038;DHT22;8123;50.906;6.172;2022-10-16T13:33:37;19.00;99.90
16038;DHT22;8123;50.906;6.172;2022-10-16T13:36:04;19.00;99.90
16038;DHT22;8123;50.906;6.172;2022-10-16T13:38:35;19.10;99.90
16038;DHT22;8123;50.906;6.172;2022-10-16T13:41:13;19.10;99.90
16038;DHT22;8123;50.906;6.172;2022-10-16T13:43:45;19.20;99.90
16038;DHT22;8123;50.906;6.172;2022-10-16T13:46:25;19.20;99.90
16038;DHT22;8123;50.906;6.172;2022-10-16T13:49:04;19.40;99.90
16038;DHT22;8123;50.906;6.172;2022-10-16T13:51:31;19.40;99.90
16038;DHT22;8123;50.906;6.172;2022-10-16T13:53:58;19.40;99.90
16038;DHT22;8123;50.906;6.172;2022-10-16T13:56:29;19.40;99.90
16038;DHT22;8123;50.906;6.172;2022-10-16T13:59:02;19.40;99.90
16038;DHT22;8123;50.906;6.172;2022-10-16T14:04:04;19.40;99.90
16038;DHT22;8123;50.906;6.172;2022-10-16T14:06:31;19.40;99.90
16038;DHT22;8123;50.906;6.172;2022-10-16T14:11:51;19.20;99.90
16038;DHT22;8123;50.906;6.172;2022-10-16T14:14:19;19.00;99.90
16038;DHT22;8123;50.906;6.172;2022-10-16T14:16:45;19.00;99.90
16038;DHT22;8123;50.906;6.172;2022-10-16T14:19:24;19.10;99.90
16038;DHT22;8123;50.906;6.172;2022-10-16T14:21:51;19.00;99.90
16038;DHT22;8123;50.906;6.172;2022-10-16T14:26:55;19.00;99.90
16038;DHT22;8123;50.906;6.172;2022-10-16T14:29:23;19.10;99.90
16038;DHT22;8123;50.906;6.172;2022-10-16T14:32:05;19.10;99.90
16038;DHT22;8123;50.906;6.172;2022-10-16T14:34:32;19.10;99.90
16038;DHT22;8123;50.906;6.172;2022-10-16T14:39:51;19.10;99.90
16038;DHT22;8123;50.906;6.172;2022-10-16T14:42:19;19.30;99.90
16038;DHT22;8123;50.906;6.172;2022-10-16T14:44:46;19.20;99.90
16038;DHT22;8123;50.906;6.172;2022-10-16T14:47:18;19.10;99.90
16038;DHT22;8123;50.906;6.172;2022-10-16T14:49:51;19.00;99.90
16038;DHT22;8123;50.906;6.172;2022-10-16T14:52:17;19.10;99.90
16038;DHT22;8123;50.906;6.172;2022-10-16T14:54:42;19.00;99.90
16038;DHT22;8123;50.906;6.172;2022-10-16T14:57:24;19.00;99.90
16038;DHT22;8123;50.906;6.172;2022-10-16T14:59:52;19.00;99.90
16038;DHT22;8123;50.906;6.172;2022-10-16T15:04:48;18.90;99.90
16038;DHT22;8123;50.906;6.172;2022-10-16T15:07:13;19.00;99.90
16038;DHT22;8123;50.906;6.172;2022-10-16T15:09:39;19.00;99.90
16038;DHT22;8123;50.906;6.172;2022-10-16T15:12:05;18.90;99.90
16038;DHT22;8123;50.906;6.172;2022-10-16T15:14:30;18.80;99.90
16038;DHT22;8123;50.906;6.172;2022-10-16T15:16:56;18.80;99.90
16038;DHT22;8123;50.906;6.172;2022-10-16T15:19:22;18.80;99.90
16038;DHT22;8123;50.906;6.172;2022-10-16T15:21:48;18.70;99.90
16038;DHT22;8123;50.906;6.172;2022-10-16T15:24:15;18.60;99.90
16038;DHT22;8123;50.906;6.172;2022-10-16T15:26:41;18.60;99.90
16038;DHT22;8123;50.906;6.172;2022-10-16T15:29:07;18.50;99.90
16038;DHT22;8123;50.906;6.172;2022-10-16T15:31:33;18.50;99.90
16038;DHT22;8123;50.906;6.172;2022-10-16T15:33:59;18.40;99.90
16038;DHT22;8123;50.906;6.172;2022-10-16T15:36:31;18.40;99.90
16038;DHT22;8123;50.906;6.172;2022-10-16T15:38:59;18.30;99.90
16038;DHT22;8123;50.906;6.172;2022-10-16T15:41:24;18.30;99.90
16038;DHT22;8123;50.906;6.172;2022-10-16T15:43:54;18.30;99.90
16038;DHT22;8123;50.906;6.172;2022-10-16T15:46:22;18.20;99.90
16038;DHT22;8123;50.906;6.172;2022-10-16T15:48:49;18.10;99.90
16038;DHT22;8123;50.906;6.172;2022-10-16T15:51:15;18.10;99.90
16038;DHT22;8123;50.906;6.172;2022-10-16T15:53:41;18.10;99.90
16038;DHT22;8123;50.906;6.172;2022-10-16T15:56:09;18.00;99.90
16038;DHT22;8123;50.906;6.172;2022-10-16T15:58:35;18.00;99.90
16038;DHT22;8123;50.906;6.172;2022-10-16T16:01:01;17.90;99.90
16038;DHT22;8123;50.906;6.172;2022-10-16T16:03:29;17.90;99.90
16038;DHT22;8123;50.906;6.172;2022-10-16T16:05:55;17.80;99.90
16038;DHT22;8123;50.906;6.172;2022-10-16T16:08:21;17.70;99.90
16038;DHT22;8123;50.906;6.172;2022-10-16T16:11:07;17.70;99.90
16038;DHT22;8123;50.906;6.172;2022-10-16T16:13:33;17.60;99.90
16038;DHT22;8123;50.906;6.172;2022-10-16T16:16:00;17.50;99.90
16038;DHT22;8123;50.906;6.172;2022-10-16T16:18:26;17.40;99.90
16038;DHT22;8123;50.906;6.172;2022-10-16T16:20:53;17.40;99.90
16038;DHT22;8123;50.906;6.172;2022-10-16T16:23:21;17.30;99.90
16038;DHT22;8123;50.906;6.172;2022-10-16T16:26:03;17.30;99.90
16038;DHT22;8123;50.906;6.172;2022-10-16T16:28:28;17.20;99.90
16038;DHT22;8123;50.906;6.172;2022-10-16T16:30:54;17.20;99.90
16038;DHT22;8123;50.906;6.172;2022-10-16T16:33:19;17.10;99.90
16038;DHT22;8123;50.906;6.172;2022-10-16T16:35:45;17.10;99.90
16038;DHT22;8123;50.906;6.172;2022-10-16T16:38:11;17.10;99.90
16038;DHT22;8123;50.906;6.172;2022-10-16T16:40:36;17.00;99.90
16038;DHT22;8123;50.906;6.172;2022-10-16T16:43:02;16.90;99.90
16038;DHT22;8123;50.906;6.172;2022-10-16T16:45:29;16.90;99.90
16038;DHT22;8123;50.906;6.172;2022-10-16T16:47:55;16.80;99.90
16038;DHT22;8123;50.906;6.172;2022-10-16T16:50:20;16.90;99.90
16038;DHT22;8123;50.906;6.172;2022-10-16T16:52:46;16.80;99.90
16038;DHT22;8123;50.906;6.172;2022-10-16T16:55:29;16.80;99.90
16038;DHT22;8123;50.906;6.172;2022-10-16T16:57:55;16.80;99.90
16038;DHT22;8123;50.906;6.172;2022-10-16T17:00:22;16.80;99.90
16038;DHT22;8123;50.906;6.172;2022-10-16T17:02:51;16.70;99.90
16038;DHT22;8123;50.906;6.172;2022-10-16T17:05:17;16.70;99.90
16038;DHT22;8123;50.906;6.172;2022-10-16T17:07:43;16.70;99.90
16038;DHT22;8123;50.906;6.172;2022-10-16T17:10:08;16.70;99.90
16038;DHT22;8123;50.906;6.172;2022-10-16T17:12:34;16.60;99.90
16038;DHT22;8123;50.906;6.172;2022-10-16T17:15:04;16.60;99.90
16038;DHT22;8123;50.906;6.172;2022-10-16T17:17:30;16.60;99.90
16038;DHT22;8123;50.906;6.172;2022-10-16T17:19:56;16.60;99.90
16038;DHT22;8123;50.906;6.172;2022-10-16T17:22:21;16.60;99.90
16038;DHT22;8123;50.906;6.172;2022-10-16T17:24:50;16.60;99.90
16038;DHT22;8123;50.906;6.172;2022-10-16T17:27:17;16.60;99.90
16038;DHT22;8123;50.906;6.172;2022-10-16T17:29:44;16.60;99.90
16038;DHT22;8123;50.906;6.172;2022-10-16T17:32:09;16.60;99.90
16038;DHT22;8123;50.906;6.172;2022-10-16T17:34:36;16.60;99.90
16038;DHT22;8123;50.906;6.172;2022-10-16T17:37:02;16.60;99.90
16038;DHT22;8123;50.906;6.172;2022-10-16T17:39:28;16.60;99.90
16038;DHT22;8123;50.906;6.172;2022-10-16T17:41:53;16.60;99.90
16038;DHT22;8123;50.906;6.172;2022-10-16T17:44:20;16.50;99.90
16038;DHT22;8123;50.906;6.172;2022-10-16T17:46:52;16.50;99.90
16038;DHT22;8123;50.906;6.172;2022-10-16T17:49:18;16.50;99.90
16038;DHT22;8123;50.906;6.172;2022-10-16T17:51:44;16.50;99.90
16038;DHT22;8123;50.906;6.172;2022-10-16T17:54:11;16.50;99.90
16038;DHT22;8123;50.906;6.172;2022-10-16T17:56:39;16.50;99.90
16038;DHT22;8123;50.906;6.172;2022-10-16T17:59:05;16.50;99.90